sensor_id;sensor_type;location;lat;lon;timestamp;P1;durP1;ratioP1;P2;durP2;ratioP2
32082;SDS011;18597;48.328;7.932;2024-03-07T00:02:05;26.97;;;14.67;;
32082;SDS011;18597;48.328;7.932;2024-03-07T00:04:32;19.27;;;12.60;;
32082;SDS011;18597;48.328;7.932;2024-03-07T00:06:57;25.27;;;13.63;;
32082;SDS011;18597;48.328;7.932;2024-03-07T00:09:23;28.30;;;13.77;;
32082;SDS011;18597;48.328;7.932;2024-03-07T00:11:49;20.57;;;12.93;;
32082;SDS011;18597;48.328;7.932;2024-03-07T00:14:15;21.03;;;13.37;;
32082;SDS011;18597;48.328;7.932;2024-03-07T00:16:41;23.80;;;14.67;;
32082;SDS011;18597;48.328;7.932;2024-03-07T00:19:07;24.07;;;15.43;;
32082;SDS011;18597;48.328;7.932;2024-03-07T00:21:33;24.80;;;14.53;;
32082;SDS011;18597;48.328;7.932;2024-03-07T00:23:58;25.03;;;15.30;;
32082;SDS011;18597;48.328;7.932;2024-03-07T00:26:25;34.40;;;16.93;;
32082;SDS011;18597;48.328;7.932;2024-03-07T00:28:51;26.40;;;16.50;;
32082;SDS011;18597;48.328;7.932;2024-03-07T00:31:17;29.97;;;17.63;;
32082;SDS011;18597;48.328;7.932;2024-03-07T00:33:43;29.13;;;15.60;;
32082;SDS011;18597;48.328;7.932;2024-03-07T00:36:09;33.30;;;16.70;;
32082;SDS011;18597;48.328;7.932;2024-03-07T00:38:35;31.03;;;16.90;;
32082;SDS011;18597;48.328;7.932;2024-03-07T00:41:01;25.93;;;17.70;;
32082;SDS011;18597;48.328;7.932;2024-03-07T00:43:27;34.33;;;18.43;;
32082;SDS011;18597;48.328;7.932;2024-03-07T00:45:52;30.20;;;17.77;;
32082;SDS011;18597;48.328;7.932;2024-03-07T00:48:18;24.27;;;15.70;;
32082;SDS011;18597;48.328;7.932;2024-03-07T00:50:44;34.27;;;17.80;;
32082;SDS011;18597;48.328;7.932;2024-03-07T00:53:10;30.13;;;16.90;;
32082;SDS011;18597;48.328;7.932;2024-03-07T00:55:36;28.27;;;17.10;;
32082;SDS011;18597;48.328;7.932;2024-03-07T00:58:01;37.10;;;18.27;;
32082;SDS011;18597;48.328;7.932;2024-03-07T01:00:28;28.17;;;17.73;;
32082;SDS011;18597;48.328;7.932;2024-03-07T01:02:53;36.50;;;17.57;;
32082;SDS011;18597;48.328;7.932;2024-03-07T01:05:19;37.63;;;16.67;;
32082;SDS011;18597;48.328;7.932;2024-03-07T01:07:45;31.17;;;18.40;;
32082;SDS011;18597;48.328;7.932;2024-03-07T01:10:13;31.10;;;16.40;;
32082;SDS011;18597;48.328;7.932;2024-03-07T01:12:40;36.83;;;18.60;;
32082;SDS011;18597;48.328;7.932;2024-03-07T01:15:08;27.10;;;15.90;;
32082;SDS011;18597;48.328;7.932;2024-03-07T01:17:36;35.30;;;17.17;;
32082;SDS011;18597;48.328;7.932;2024-03-07T01:20:02;36.60;;;16.60;;
32082;SDS011;18597;48.328;7.932;2024-03-07T01:22:29;34.23;;;17.33;;
32082;SDS011;18597;48.328;7.932;2024-03-07T01:24:55;31.93;;;16.80;;
32082;SDS011;18597;48.328;7.932;2024-03-07T01:27:21;44.53;;;20.00;;
32082;SDS011;18597;48.328;7.932;2024-03-07T01:29:49;44.83;;;19.83;;
32082;SDS011;18597;48.328;7.932;2024-03-07T01:32:15;38.47;;;19.20;;
32082;SDS011;18597;48.328;7.932;2024-03-07T01:34:41;33.63;;;18.87;;
32082;SDS011;18597;48.328;7.932;2024-03-07T01:37:07;34.40;;;18.13;;
32082;SDS011;18597;48.328;7.932;2024-03-07T01:39:33;32.57;;;17.70;;
32082;SDS011;18597;48.328;7.932;2024-03-07T01:41:59;41.67;;;21.20;;
32082;SDS011;18597;48.328;7.932;2024-03-07T01:44:24;40.47;;;20.13;;
32082;SDS011;18597;48.328;7.932;2024-03-07T01:46:50;40.40;;;19.47;;
32082;SDS011;18597;48.328;7.932;2024-03-07T01:49:16;30.67;;;17.43;;
32082;SDS011;18597;48.328;7.932;2024-03-07T01:51:42;34.80;;;18.03;;
32082;SDS011;18597;48.328;7.932;2024-03-07T01:54:08;36.07;;;19.70;;
32082;SDS011;18597;48.328;7.932;2024-03-07T01:56:35;44.23;;;21.43;;
32082;SDS011;18597;48.328;7.932;2024-03-07T01:59:02;38.40;;;19.20;;
32082;SDS011;18597;48.328;7.932;2024-03-07T02:01:30;42.13;;;19.97;;
32082;SDS011;18597;48.328;7.932;2024-03-07T02:03:56;42.50;;;20.40;;
32082;SDS011;18597;48.328;7.932;2024-03-07T02:06:22;36.50;;;20.20;;
32082;SDS011;18597;48.328;7.932;2024-03-07T02:08:49;41.17;;;20.47;;
32082;SDS011;18597;48.328;7.932;2024-03-07T02:11:15;41.47;;;19.00;;
32082;SDS011;18597;48.328;7.932;2024-03-07T02:13:41;46.47;;;21.67;;
32082;SDS011;18597;48.328;7.932;2024-03-07T02:16:06;36.93;;;18.40;;
32082;SDS011;18597;48.328;7.932;2024-03-07T02:18:33;41.20;;;20.00;;
32082;SDS011;18597;48.328;7.932;2024-03-07T02:21:05;43.10;;;19.83;;
32082;SDS011;18597;48.328;7.932;2024-03-07T02:23:34;48.93;;;21.53;;
32082;SDS011;18597;48.328;7.932;2024-03-07T02:26:00;47.07;;;20.10;;
32082;SDS011;18597;48.328;7.932;2024-03-07T02:28:25;42.00;;;19.60;;
32082;SDS011;18597;48.328;7.932;2024-03-07T02:30:51;46.93;;;22.13;;
32082;SDS011;18597;48.328;7.932;2024-03-07T02:33:18;48.20;;;19.77;;
32082;SDS011;18597;48.328;7.932;2024-03-07T02:35:43;51.97;;;21.03;;
32082;SDS011;18597;48.328;7.932;2024-03-07T02:38:09;60.87;;;23.30;;
32082;SDS011;18597;48.328;7.932;2024-03-07T02:40:35;54.20;;;22.77;;
32082;SDS011;18597;48.328;7.932;2024-03-07T02:43:01;56.40;;;21.60;;
32082;SDS011;18597;48.328;7.932;2024-03-07T02:45:30;47.57;;;22.57;;
32082;SDS011;18597;48.328;7.932;2024-03-07T02:47:56;58.17;;;22.53;;
32082;SDS011;18597;48.328;7.932;2024-03-07T02:50:22;54.53;;;22.77;;
32082;SDS011;18597;48.328;7.932;2024-03-07T02:52:48;49.60;;;23.23;;
32082;SDS011;18597;48.328;7.932;2024-03-07T02:55:15;59.87;;;23.77;;
32082;SDS011;18597;48.328;7.932;2024-03-07T02:57:41;51.57;;;23.37;;
32082;SDS011;18597;48.328;7.932;2024-03-07T03:00:07;56.47;;;22.60;;
32082;SDS011;18597;48.328;7.932;2024-03-07T03:02:54;50.70;;;21.60;;
32082;SDS011;18597;48.328;7.932;2024-03-07T03:05:20;61.33;;;24.80;;
32082;SDS011;18597;48.328;7.932;2024-03-07T03:07:47;50.27;;;20.10;;
32082;SDS011;18597;48.328;7.932;2024-03-07T03:10:19;39.53;;;19.47;;
32082;SDS011;18597;48.328;7.932;2024-03-07T03:12:52;51.80;;;20.03;;
32082;SDS011;18597;48.328;7.932;2024-03-07T03:15:19;47.20;;;20.50;;
32082;SDS011;18597;48.328;7.932;2024-03-07T03:17:45;56.63;;;20.00;;
32082;SDS011;18597;48.328;7.932;2024-03-07T03:20:13;46.43;;;21.57;;
32082;SDS011;18597;48.328;7.932;2024-03-07T03:22:49;61.63;;;23.60;;
32082;SDS011;18597;48.328;7.932;2024-03-07T03:25:18;47.43;;;21.97;;
32082;SDS011;18597;48.328;7.932;2024-03-07T03:27:47;59.90;;;23.50;;
32082;SDS011;18597;48.328;7.932;2024-03-07T03:30:13;49.60;;;21.87;;
32082;SDS011;18597;48.328;7.932;2024-03-07T03:32:40;50.33;;;20.80;;
32082;SDS011;18597;48.328;7.932;2024-03-07T03:35:06;47.40;;;21.13;;
32082;SDS011;18597;48.328;7.932;2024-03-07T03:37:38;54.20;;;21.93;;
32082;SDS011;18597;48.328;7.932;2024-03-07T03:40:06;66.40;;;23.27;;
32082;SDS011;18597;48.328;7.932;2024-03-07T03:42:34;68.93;;;23.93;;
32082;SDS011;18597;48.328;7.932;2024-03-07T03:45:03;65.00;;;25.10;;
32082;SDS011;18597;48.328;7.932;2024-03-07T03:47:33;62.97;;;22.60;;
32082;SDS011;18597;48.328;7.932;2024-03-07T03:50:02;67.73;;;23.40;;
32082;SDS011;18597;48.328;7.932;2024-03-07T03:52:30;66.23;;;23.80;;
32082;SDS011;18597;48.328;7.932;2024-03-07T03:54:57;67.83;;;25.17;;
32082;SDS011;18597;48.328;7.932;2024-03-07T03:57:25;81.97;;;26.23;;
32082;SDS011;18597;48.328;7.932;2024-03-07T03:59:51;75.70;;;26.50;;
32082;SDS011;18597;48.328;7.932;2024-03-07T04:02:18;73.63;;;26.70;;
32082;SDS011;18597;48.328;7.932;2024-03-07T04:04:44;87.90;;;30.30;;
32082;SDS011;18597;48.328;7.932;2024-03-07T04:07:11;85.93;;;30.57;;
32082;SDS011;18597;48.328;7.932;2024-03-07T04:09:37;88.67;;;30.33;;
32082;SDS011;18597;48.328;7.932;2024-03-07T04:12:04;128.13;;;31.87;;
32082;SDS011;18597;48.328;7.932;2024-03-07T04:14:30;109.63;;;31.13;;
32082;SDS011;18597;48.328;7.932;2024-03-07T04:16:58;155.10;;;36.17;;
32082;SDS011;18597;48.328;7.932;2024-03-07T04:19:24;154.70;;;33.63;;
32082;SDS011;18597;48.328;7.932;2024-03-07T04:21:50;100.97;;;28.40;;
32082;SDS011;18597;48.328;7.932;2024-03-07T04:24:16;91.03;;;28.60;;
32082;SDS011;18597;48.328;7.932;2024-03-07T04:26:42;83.93;;;27.73;;
32082;SDS011;18597;48.328;7.932;2024-03-07T04:29:08;98.77;;;28.60;;
32082;SDS011;18597;48.328;7.932;2024-03-07T04:31:34;97.53;;;29.10;;
32082;SDS011;18597;48.328;7.932;2024-03-07T04:34:00;104.80;;;30.67;;
32082;SDS011;18597;48.328;7.932;2024-03-07T04:36:26;109.27;;;31.20;;
32082;SDS011;18597;48.328;7.932;2024-03-07T04:38:52;113.43;;;32.80;;
32082;SDS011;18597;48.328;7.932;2024-03-07T04:41:18;136.07;;;34.63;;
32082;SDS011;18597;48.328;7.932;2024-03-07T04:43:44;123.27;;;34.70;;
32082;SDS011;18597;48.328;7.932;2024-03-07T04:46:10;92.40;;;29.27;;
32082;SDS011;18597;48.328;7.932;2024-03-07T04:48:36;119.87;;;31.40;;
32082;SDS011;18597;48.328;7.932;2024-03-07T04:51:02;134.03;;;33.87;;
32082;SDS011;18597;48.328;7.932;2024-03-07T04:53:28;110.03;;;33.73;;
32082;SDS011;18597;48.328;7.932;2024-03-07T04:55:54;131.73;;;37.63;;
32082;SDS011;18597;48.328;7.932;2024-03-07T04:58:21;177.17;;;41.13;;
32082;SDS011;18597;48.328;7.932;2024-03-07T05:00:47;167.05;;;41.00;;
32082;SDS011;18597;48.328;7.932;2024-03-07T05:03:12;204.33;;;43.70;;
32082;SDS011;18597;48.328;7.932;2024-03-07T05:05:38;130.93;;;35.37;;
32082;SDS011;18597;48.328;7.932;2024-03-07T05:08:06;143.17;;;40.37;;
32082;SDS011;18597;48.328;7.932;2024-03-07T05:10:31;117.87;;;36.83;;
32082;SDS011;18597;48.328;7.932;2024-03-07T05:12:57;203.43;;;41.70;;
32082;SDS011;18597;48.328;7.932;2024-03-07T05:15:24;319.87;;;49.60;;
32082;SDS011;18597;48.328;7.932;2024-03-07T05:17:51;203.93;;;39.37;;
32082;SDS011;18597;48.328;7.932;2024-03-07T05:20:17;327.27;;;51.03;;
32082;SDS011;18597;48.328;7.932;2024-03-07T05:22:43;153.20;;;39.77;;
32082;SDS011;18597;48.328;7.932;2024-03-07T05:25:12;148.37;;;39.97;;
32082;SDS011;18597;48.328;7.932;2024-03-07T05:27:38;166.23;;;41.20;;
32082;SDS011;18597;48.328;7.932;2024-03-07T05:30:05;155.03;;;41.13;;
32082;SDS011;18597;48.328;7.932;2024-03-07T05:32:34;171.77;;;42.37;;
32082;SDS011;18597;48.328;7.932;2024-03-07T05:35:00;231.20;;;46.10;;
32082;SDS011;18597;48.328;7.932;2024-03-07T05:37:26;230.03;;;47.00;;
32082;SDS011;18597;48.328;7.932;2024-03-07T05:39:52;412.80;;;59.90;;
32082;SDS011;18597;48.328;7.932;2024-03-07T05:42:18;238.23;;;43.27;;
32082;SDS011;18597;48.328;7.932;2024-03-07T05:44:45;218.30;;;43.37;;
32082;SDS011;18597;48.328;7.932;2024-03-07T05:47:11;211.97;;;45.30;;
32082;SDS011;18597;48.328;7.932;2024-03-07T05:49:41;188.87;;;43.27;;
32082;SDS011;18597;48.328;7.932;2024-03-07T05:52:07;153.70;;;39.10;;
32082;SDS011;18597;48.328;7.932;2024-03-07T05:54:33;128.50;;;38.57;;
32082;SDS011;18597;48.328;7.932;2024-03-07T05:57:00;139.70;;;38.60;;
32082;SDS011;18597;48.328;7.932;2024-03-07T05:59:26;349.50;;;46.90;;
32082;SDS011;18597;48.328;7.932;2024-03-07T06:01:53;139.17;;;39.67;;
32082;SDS011;18597;48.328;7.932;2024-03-07T06:04:20;525.77;;;59.50;;
32082;SDS011;18597;48.328;7.932;2024-03-07T06:06:46;281.05;;;46.05;;
32082;SDS011;18597;48.328;7.932;2024-03-07T06:09:13;317.57;;;47.50;;
32082;SDS011;18597;48.328;7.932;2024-03-07T06:11:40;219.30;;;41.80;;
32082;SDS011;18597;48.328;7.932;2024-03-07T06:14:07;207.90;;;40.90;;
32082;SDS011;18597;48.328;7.932;2024-03-07T06:16:36;172.63;;;36.73;;
32082;SDS011;18597;48.328;7.932;2024-03-07T06:19:03;117.33;;;36.40;;
32082;SDS011;18597;48.328;7.932;2024-03-07T06:21:33;221.47;;;40.57;;
32082;SDS011;18597;48.328;7.932;2024-03-07T06:24:04;330.57;;;47.00;;
32082;SDS011;18597;48.328;7.932;2024-03-07T06:26:32;374.67;;;40.97;;
32082;SDS011;18597;48.328;7.932;2024-03-07T06:29:20;298.00;;;34.93;;
32082;SDS011;18597;48.328;7.932;2024-03-07T06:31:46;277.40;;;34.53;;
32082;SDS011;18597;48.328;7.932;2024-03-07T06:34:12;229.97;;;31.40;;
32082;SDS011;18597;48.328;7.932;2024-03-07T06:36:39;317.80;;;33.30;;
32082;SDS011;18597;48.328;7.932;2024-03-07T06:39:06;222.93;;;33.43;;
32082;SDS011;18597;48.328;7.932;2024-03-07T06:41:33;263.17;;;38.90;;
32082;SDS011;18597;48.328;7.932;2024-03-07T06:43:59;195.30;;;38.87;;
32082;SDS011;18597;48.328;7.932;2024-03-07T06:46:25;154.97;;;36.57;;
32082;SDS011;18597;48.328;7.932;2024-03-07T06:48:51;116.17;;;33.50;;
32082;SDS011;18597;48.328;7.932;2024-03-07T06:51:17;237.37;;;40.27;;
32082;SDS011;18597;48.328;7.932;2024-03-07T06:53:44;262.57;;;40.80;;
32082;SDS011;18597;48.328;7.932;2024-03-07T06:56:12;163.63;;;38.23;;
32082;SDS011;18597;48.328;7.932;2024-03-07T06:58:38;184.40;;;35.60;;
32082;SDS011;18597;48.328;7.932;2024-03-07T07:01:05;143.93;;;37.27;;
32082;SDS011;18597;48.328;7.932;2024-03-07T07:03:34;125.33;;;33.20;;
32082;SDS011;18597;48.328;7.932;2024-03-07T07:06:02;97.00;;;35.90;;
32082;SDS011;18597;48.328;7.932;2024-03-07T07:08:31;81.07;;;34.97;;
32082;SDS011;18597;48.328;7.932;2024-03-07T07:10:58;122.70;;;37.47;;
32082;SDS011;18597;48.328;7.932;2024-03-07T07:13:24;94.87;;;34.30;;
32082;SDS011;18597;48.328;7.932;2024-03-07T07:15:50;83.90;;;37.30;;
32082;SDS011;18597;48.328;7.932;2024-03-07T07:18:16;73.87;;;31.73;;
32082;SDS011;18597;48.328;7.932;2024-03-07T07:20:43;67.40;;;32.97;;
32082;SDS011;18597;48.328;7.932;2024-03-07T07:23:08;69.47;;;32.77;;
32082;SDS011;18597;48.328;7.932;2024-03-07T07:25:34;64.60;;;31.27;;
32082;SDS011;18597;48.328;7.932;2024-03-07T07:28:00;70.17;;;30.90;;
32082;SDS011;18597;48.328;7.932;2024-03-07T07:30:29;64.53;;;31.63;;
32082;SDS011;18597;48.328;7.932;2024-03-07T07:32:55;70.70;;;30.70;;
32082;SDS011;18597;48.328;7.932;2024-03-07T07:35:21;92.77;;;33.23;;
32082;SDS011;18597;48.328;7.932;2024-03-07T07:37:48;63.57;;;30.07;;
32082;SDS011;18597;48.328;7.932;2024-03-07T07:40:19;73.60;;;32.43;;
32082;SDS011;18597;48.328;7.932;2024-03-07T07:42:48;73.67;;;33.23;;
32082;SDS011;18597;48.328;7.932;2024-03-07T07:45:17;64.87;;;30.57;;
32082;SDS011;18597;48.328;7.932;2024-03-07T07:47:45;61.17;;;32.40;;
32082;SDS011;18597;48.328;7.932;2024-03-07T07:50:14;57.63;;;31.17;;
32082;SDS011;18597;48.328;7.932;2024-03-07T07:52:44;42.03;;;25.50;;
32082;SDS011;18597;48.328;7.932;2024-03-07T07:55:20;51.50;;;29.90;;
32082;SDS011;18597;48.328;7.932;2024-03-07T07:57:49;65.60;;;27.00;;
32082;SDS011;18597;48.328;7.932;2024-03-07T08:00:18;63.57;;;27.30;;
32082;SDS011;18597;48.328;7.932;2024-03-07T08:02:48;61.73;;;27.03;;
32082;SDS011;18597;48.328;7.932;2024-03-07T08:05:17;43.60;;;24.30;;
32082;SDS011;18597;48.328;7.932;2024-03-07T08:07:45;34.30;;;20.83;;
32082;SDS011;18597;48.328;7.932;2024-03-07T08:10:13;37.73;;;23.20;;
32082;SDS011;18597;48.328;7.932;2024-03-07T08:12:40;35.57;;;21.63;;
32082;SDS011;18597;48.328;7.932;2024-03-07T08:15:08;32.47;;;24.23;;
32082;SDS011;18597;48.328;7.932;2024-03-07T08:17:39;36.10;;;24.80;;
32082;SDS011;18597;48.328;7.932;2024-03-07T08:20:08;49.00;;;26.73;;
32082;SDS011;18597;48.328;7.932;2024-03-07T08:22:37;48.53;;;27.83;;
32082;SDS011;18597;48.328;7.932;2024-03-07T08:25:07;50.53;;;28.63;;
32082;SDS011;18597;48.328;7.932;2024-03-07T08:27:37;51.40;;;29.40;;
32082;SDS011;18597;48.328;7.932;2024-03-07T08:30:05;49.40;;;30.20;;
32082;SDS011;18597;48.328;7.932;2024-03-07T08:32:33;45.70;;;27.90;;
32082;SDS011;18597;48.328;7.932;2024-03-07T08:35:02;46.50;;;29.63;;
32082;SDS011;18597;48.328;7.932;2024-03-07T08:37:32;44.57;;;28.13;;
32082;SDS011;18597;48.328;7.932;2024-03-07T08:40:01;50.97;;;30.47;;
32082;SDS011;18597;48.328;7.932;2024-03-07T08:42:30;50.20;;;30.37;;
32082;SDS011;18597;48.328;7.932;2024-03-07T08:44:58;48.87;;;29.77;;
32082;SDS011;18597;48.328;7.932;2024-03-07T08:47:26;48.77;;;31.30;;
32082;SDS011;18597;48.328;7.932;2024-03-07T08:49:53;41.93;;;28.20;;
32082;SDS011;18597;48.328;7.932;2024-03-07T08:52:20;40.37;;;26.80;;
32082;SDS011;18597;48.328;7.932;2024-03-07T08:54:45;40.70;;;26.53;;
32082;SDS011;18597;48.328;7.932;2024-03-07T08:57:11;37.67;;;25.80;;
32082;SDS011;18597;48.328;7.932;2024-03-07T08:59:39;30.50;;;23.83;;
32082;SDS011;18597;48.328;7.932;2024-03-07T09:02:05;40.57;;;26.03;;
32082;SDS011;18597;48.328;7.932;2024-03-07T09:04:31;43.30;;;26.67;;
32082;SDS011;18597;48.328;7.932;2024-03-07T09:06:56;43.70;;;25.43;;
32082;SDS011;18597;48.328;7.932;2024-03-07T09:09:23;40.43;;;27.97;;
32082;SDS011;18597;48.328;7.932;2024-03-07T09:11:49;38.70;;;27.10;;
32082;SDS011;18597;48.328;7.932;2024-03-07T09:14:15;42.00;;;26.40;;
32082;SDS011;18597;48.328;7.932;2024-03-07T09:16:41;48.70;;;29.27;;
32082;SDS011;18597;48.328;7.932;2024-03-07T09:19:08;47.53;;;31.60;;
32082;SDS011;18597;48.328;7.932;2024-03-07T09:21:39;58.10;;;34.20;;
32082;SDS011;18597;48.328;7.932;2024-03-07T09:24:06;58.53;;;34.87;;
32082;SDS011;18597;48.328;7.932;2024-03-07T09:26:32;43.07;;;27.23;;
32082;SDS011;18597;48.328;7.932;2024-03-07T09:28:59;47.30;;;30.40;;
32082;SDS011;18597;48.328;7.932;2024-03-07T09:31:30;40.30;;;27.10;;
32082;SDS011;18597;48.328;7.932;2024-03-07T09:33:57;41.37;;;26.67;;
32082;SDS011;18597;48.328;7.932;2024-03-07T09:36:24;41.90;;;27.30;;
32082;SDS011;18597;48.328;7.932;2024-03-07T09:38:51;45.83;;;29.83;;
32082;SDS011;18597;48.328;7.932;2024-03-07T09:41:18;43.20;;;27.67;;
32082;SDS011;18597;48.328;7.932;2024-03-07T09:43:46;44.87;;;26.47;;
32082;SDS011;18597;48.328;7.932;2024-03-07T09:46:15;47.00;;;28.40;;
32082;SDS011;18597;48.328;7.932;2024-03-07T09:48:42;41.40;;;26.83;;
32082;SDS011;18597;48.328;7.932;2024-03-07T09:51:09;43.93;;;25.17;;
32082;SDS011;18597;48.328;7.932;2024-03-07T09:53:37;44.07;;;27.20;;
32082;SDS011;18597;48.328;7.932;2024-03-07T09:56:04;41.13;;;26.53;;
32082;SDS011;18597;48.328;7.932;2024-03-07T09:58:31;40.23;;;24.30;;
32082;SDS011;18597;48.328;7.932;2024-03-07T10:00:58;42.40;;;24.33;;
32082;SDS011;18597;48.328;7.932;2024-03-07T10:03:29;46.70;;;26.87;;
32082;SDS011;18597;48.328;7.932;2024-03-07T10:05:55;50.03;;;25.50;;
32082;SDS011;18597;48.328;7.932;2024-03-07T10:08:22;46.13;;;26.00;;
32082;SDS011;18597;48.328;7.932;2024-03-07T10:10:49;44.00;;;26.40;;
32082;SDS011;18597;48.328;7.932;2024-03-07T10:13:16;40.97;;;23.57;;
32082;SDS011;18597;48.328;7.932;2024-03-07T10:15:43;45.03;;;26.40;;
32082;SDS011;18597;48.328;7.932;2024-03-07T10:18:09;40.87;;;23.90;;
32082;SDS011;18597;48.328;7.932;2024-03-07T10:20:36;44.47;;;26.43;;
32082;SDS011;18597;48.328;7.932;2024-03-07T10:23:02;41.77;;;25.10;;
32082;SDS011;18597;48.328;7.932;2024-03-07T10:25:28;41.17;;;25.23;;
32082;SDS011;18597;48.328;7.932;2024-03-07T10:27:54;43.57;;;25.13;;
32082;SDS011;18597;48.328;7.932;2024-03-07T10:30:20;42.70;;;25.23;;
32082;SDS011;18597;48.328;7.932;2024-03-07T10:32:46;46.07;;;25.13;;
32082;SDS011;18597;48.328;7.932;2024-03-07T10:35:19;45.37;;;25.00;;
32082;SDS011;18597;48.328;7.932;2024-03-07T10:37:52;40.87;;;24.13;;
32082;SDS011;18597;48.328;7.932;2024-03-07T10:40:19;52.80;;;27.13;;
32082;SDS011;18597;48.328;7.932;2024-03-07T10:42:47;37.97;;;23.33;;
32082;SDS011;18597;48.328;7.932;2024-03-07T10:45:17;44.97;;;25.57;;
32082;SDS011;18597;48.328;7.932;2024-03-07T10:47:49;44.50;;;24.37;;
32082;SDS011;18597;48.328;7.932;2024-03-07T10:50:25;47.10;;;25.23;;
32082;SDS011;18597;48.328;7.932;2024-03-07T10:53:19;45.30;;;26.33;;
32082;SDS011;18597;48.328;7.932;2024-03-07T10:56:01;49.90;;;28.13;;
32082;SDS011;18597;48.328;7.932;2024-03-07T10:58:58;45.83;;;27.90;;
32082;SDS011;18597;48.328;7.932;2024-03-07T11:01:45;53.40;;;27.40;;
32082;SDS011;18597;48.328;7.932;2024-03-07T11:04:22;48.47;;;26.13;;
32082;SDS011;18597;48.328;7.932;2024-03-07T11:06:49;45.00;;;26.30;;
32082;SDS011;18597;48.328;7.932;2024-03-07T11:09:15;63.17;;;29.20;;
32082;SDS011;18597;48.328;7.932;2024-03-07T11:11:48;54.73;;;30.23;;
32082;SDS011;18597;48.328;7.932;2024-03-07T11:14:14;46.13;;;27.80;;
32082;SDS011;18597;48.328;7.932;2024-03-07T11:16:42;56.70;;;29.57;;
32082;SDS011;18597;48.328;7.932;2024-03-07T11:19:24;50.30;;;29.77;;
32082;SDS011;18597;48.328;7.932;2024-03-07T11:21:54;47.27;;;25.97;;
32082;SDS011;18597;48.328;7.932;2024-03-07T11:24:23;53.10;;;29.83;;
32082;SDS011;18597;48.328;7.932;2024-03-07T11:26:53;58.60;;;30.60;;
32082;SDS011;18597;48.328;7.932;2024-03-07T11:29:52;57.00;;;30.67;;
32082;SDS011;18597;48.328;7.932;2024-03-07T11:32:19;48.33;;;27.60;;
32082;SDS011;18597;48.328;7.932;2024-03-07T11:34:47;50.13;;;29.03;;
32082;SDS011;18597;48.328;7.932;2024-03-07T11:37:16;53.83;;;30.60;;
32082;SDS011;18597;48.328;7.932;2024-03-07T11:39:47;54.87;;;29.30;;
32082;SDS011;18597;48.328;7.932;2024-03-07T11:42:31;47.10;;;26.70;;
32082;SDS011;18597;48.328;7.932;2024-03-07T11:44:58;49.97;;;26.83;;
32082;SDS011;18597;48.328;7.932;2024-03-07T11:47:34;45.33;;;26.27;;
32082;SDS011;18597;48.328;7.932;2024-03-07T11:50:05;51.60;;;31.50;;
32082;SDS011;18597;48.328;7.932;2024-03-07T11:52:39;41.43;;;24.70;;
32082;SDS011;18597;48.328;7.932;2024-03-07T11:55:09;40.77;;;23.47;;
32082;SDS011;18597;48.328;7.932;2024-03-07T11:57:36;36.03;;;22.30;;
32082;SDS011;18597;48.328;7.932;2024-03-07T12:00:03;43.77;;;24.03;;
32082;SDS011;18597;48.328;7.932;2024-03-07T12:02:36;40.10;;;23.80;;
32082;SDS011;18597;48.328;7.932;2024-03-07T12:05:03;36.47;;;23.23;;
32082;SDS011;18597;48.328;7.932;2024-03-07T12:07:31;36.60;;;22.57;;
32082;SDS011;18597;48.328;7.932;2024-03-07T12:09:58;41.57;;;24.07;;
32082;SDS011;18597;48.328;7.932;2024-03-07T12:12:29;38.00;;;21.90;;
32082;SDS011;18597;48.328;7.932;2024-03-07T12:14:55;37.83;;;23.77;;
32082;SDS011;18597;48.328;7.932;2024-03-07T12:17:21;38.47;;;22.47;;
32082;SDS011;18597;48.328;7.932;2024-03-07T12:19:49;36.43;;;21.67;;
32082;SDS011;18597;48.328;7.932;2024-03-07T12:22:18;38.40;;;22.40;;
32082;SDS011;18597;48.328;7.932;2024-03-07T12:25:04;36.00;;;22.90;;
32082;SDS011;18597;48.328;7.932;2024-03-07T12:27:33;44.13;;;23.57;;
32082;SDS011;18597;48.328;7.932;2024-03-07T12:29:59;35.80;;;22.70;;
32082;SDS011;18597;48.328;7.932;2024-03-07T12:32:32;33.60;;;21.67;;
32082;SDS011;18597;48.328;7.932;2024-03-07T12:34:58;38.13;;;20.70;;
32082;SDS011;18597;48.328;7.932;2024-03-07T12:37:24;36.00;;;21.33;;
32082;SDS011;18597;48.328;7.932;2024-03-07T12:39:54;38.37;;;21.93;;
32082;SDS011;18597;48.328;7.932;2024-03-07T12:42:30;42.87;;;23.30;;
32082;SDS011;18597;48.328;7.932;2024-03-07T12:44:57;34.63;;;21.10;;
32082;SDS011;18597;48.328;7.932;2024-03-07T12:47:24;36.73;;;22.47;;
32082;SDS011;18597;48.328;7.932;2024-03-07T12:49:51;32.67;;;20.77;;
32082;SDS011;18597;48.328;7.932;2024-03-07T12:52:16;39.37;;;21.40;;
32082;SDS011;18597;48.328;7.932;2024-03-07T12:54:42;37.33;;;20.97;;
32082;SDS011;18597;48.328;7.932;2024-03-07T12:57:08;37.60;;;21.57;;
32082;SDS011;18597;48.328;7.932;2024-03-07T12:59:37;31.00;;;19.87;;
32082;SDS011;18597;48.328;7.932;2024-03-07T13:02:07;31.07;;;19.03;;
32082;SDS011;18597;48.328;7.932;2024-03-07T13:04:34;37.83;;;20.27;;
32082;SDS011;18597;48.328;7.932;2024-03-07T13:07:02;38.60;;;20.87;;
32082;SDS011;18597;48.328;7.932;2024-03-07T13:09:31;36.60;;;21.37;;
32082;SDS011;18597;48.328;7.932;2024-03-07T13:11:59;35.33;;;20.00;;
32082;SDS011;18597;48.328;7.932;2024-03-07T13:14:26;30.60;;;20.10;;
32082;SDS011;18597;48.328;7.932;2024-03-07T13:16:57;32.27;;;20.37;;
32082;SDS011;18597;48.328;7.932;2024-03-07T13:19:25;37.73;;;19.50;;
32082;SDS011;18597;48.328;7.932;2024-03-07T13:21:52;36.07;;;19.10;;
32082;SDS011;18597;48.328;7.932;2024-03-07T13:24:18;35.60;;;18.97;;
32082;SDS011;18597;48.328;7.932;2024-03-07T13:26:45;33.30;;;19.97;;
32082;SDS011;18597;48.328;7.932;2024-03-07T13:29:15;35.63;;;18.20;;
32082;SDS011;18597;48.328;7.932;2024-03-07T13:31:42;29.50;;;18.37;;
32082;SDS011;18597;48.328;7.932;2024-03-07T13:34:10;35.57;;;18.30;;
32082;SDS011;18597;48.328;7.932;2024-03-07T13:36:40;30.40;;;18.50;;
32082;SDS011;18597;48.328;7.932;2024-03-07T13:39:06;36.83;;;20.00;;
32082;SDS011;18597;48.328;7.932;2024-03-07T13:41:37;29.03;;;17.77;;
32082;SDS011;18597;48.328;7.932;2024-03-07T13:44:04;35.40;;;18.43;;
32082;SDS011;18597;48.328;7.932;2024-03-07T13:46:31;33.70;;;18.77;;
32082;SDS011;18597;48.328;7.932;2024-03-07T13:49:01;29.83;;;18.47;;
32082;SDS011;18597;48.328;7.932;2024-03-07T13:51:43;30.77;;;19.30;;
32082;SDS011;18597;48.328;7.932;2024-03-07T13:54:24;34.90;;;20.70;;
32082;SDS011;18597;48.328;7.932;2024-03-07T13:57:15;30.50;;;17.90;;
32082;SDS011;18597;48.328;7.932;2024-03-07T14:05:59;31.10;;;18.10;;
32082;SDS011;18597;48.328;7.932;2024-03-07T14:12:33;29.13;;;17.33;;
32082;SDS011;18597;48.328;7.932;2024-03-07T14:15:57;31.40;;;18.00;;
32082;SDS011;18597;48.328;7.932;2024-03-07T14:22:08;32.03;;;17.40;;
32082;SDS011;18597;48.328;7.932;2024-03-07T14:24:58;26.10;;;17.20;;
32082;SDS011;18597;48.328;7.932;2024-03-07T14:30:59;32.27;;;17.57;;
32082;SDS011;18597;48.328;7.932;2024-03-07T14:33:31;33.57;;;20.30;;
32082;SDS011;18597;48.328;7.932;2024-03-07T14:36:41;35.63;;;19.03;;
32082;SDS011;18597;48.328;7.932;2024-03-07T14:39:11;30.23;;;17.60;;
32082;SDS011;18597;48.328;7.932;2024-03-07T14:41:42;32.37;;;20.33;;
32082;SDS011;18597;48.328;7.932;2024-03-07T14:44:22;30.03;;;17.00;;